Flight Track Log - Related Links

Times and Time Zones

All times are in EDT time to prevent confusion due to time zone crossing. See the GJS6221 flight status page for this flight to view local times or setup timezone preferences in your user account.

Time Position Orientation Groundspeed Altitude Reporting Facility
EDT Latitude Longitude Course Direction KTS MPH feet Rate Location/Type
Mon 01:05:50 PM 40.8000 -73.9000 346° North 171 197 1,500  Level New York TRACON
Mon 01:08:11 PM 40.9442 -73.9458 346° North 252 290 6,400 2,228 Climbing New York Center
Mon 01:09:12 PM 40.9950 -74.0264 310° West 281 323 9,000 2,160 Climbing New York Center
Mon 01:10:16 PM 41.0222 -74.1281 290° West 296 341 10,900 1,887 Climbing New York Center
Mon 01:11:16 PM 41.0478 -74.2550 285° West 331 381 12,900 2,064 Climbing New York Center
Mon 01:12:21 PM 41.0728 -74.3750 285° West 347 399 15,200 1,488 Climbing New York Center
Mon 01:13:21 PM 41.1006 -74.5133 285° West 361 415 16,000 532 Climbing New York Center
Mon 01:14:25 PM 41.1286 -74.6492 285° West 378 435 16,300 1,095 Climbing New York Center
Mon 01:15:27 PM 41.1761 -74.7808 296° West 367 422 18,300 1,694 Climbing New York Center
Mon 01:16:29 PM 41.2231 -74.8903 300° West 367 422 19,800 1,548 Climbing New York Center
Mon 01:17:31 PM 41.2803 -75.0239 300° West 374 430 21,500 1,403 Climbing New York Center
Mon 01:18:33 PM 41.3350 -75.1506 300° West 392 451 22,700 1,220 Climbing New York Center
Mon 01:19:34 PM 41.3906 -75.2792 300° West 400 460 24,000 1,268 Climbing New York Center
Mon 01:20:36 PM 41.4461 -75.4097 300° West 404 465 25,300 1,258 Climbing New York Center
Mon 01:21:38 PM 41.4956 -75.5450 296° West 407 468 26,600 1,228 Climbing New York Center
Mon 01:22:43 PM 41.5444 -75.7167 291° West 414 476 27,900 1,048 Climbing New York Center
Mon 01:23:44 PM 41.5856 -75.8622 291° West 418 481 28,800 787 Climbing New York Center
Mon 01:24:45 PM 41.6278 -76.0111 291° West 430 495 29,500 726 Climbing New York Center
Mon 01:25:48 PM 41.6703 -76.1608 291° West 435 501 30,300 871 Climbing New York Center
Mon 01:26:49 PM 41.7228 -76.3444 291° West 443 510 31,300 864 Climbing New York Center
Mon 01:27:53 PM 41.7653 -76.4975 290° West 444 511 32,100 810 Climbing New York Center
Mon 01:28:55 PM 41.8117 -76.6686 290° West 443 510 33,000 816 Climbing New York Center
Mon 01:29:58 PM 41.8542 -76.8247 290° West 444 511 33,800 677 Climbing New York Center
Mon 01:30:59 PM 41.8972 -76.9814 290° West 447 514 34,400 683 Climbing New York Center
Mon 01:32:01 PM 41.9400 -77.1372 290° West 447 514 35,200 768 Climbing New York Center
Mon 01:33:04 PM 41.9808 -77.2936 289° West 445 512 36,000 823 Climbing New York Center
Mon 01:34:05 PM 42.0228 -77.4483 290° West 442 509 36,900 810 Climbing New York Center
Mon 01:35:10 PM 42.0653 -77.6014 291° West 439 505 37,700 537 Climbing New York Center
Mon 01:36:08 PM 42.1131 -77.7831 290° West 431 496 38,000 146 Climbing New York Center
Mon 01:37:13 PM 42.1544 -77.9372 290° West 431 496 38,000  Level New York Center
Mon 01:38:13 PM 42.1964 -78.0939 290° West 437 503 38,000  Level New York Center
Mon 01:39:37 PM 42.2533 -78.3133 289° West 445 512 38,000  Level Cleveland Center
Mon 01:40:39 PM 42.2919 -78.4697 289° West 443 510 38,000  Level Cleveland Center
Mon 01:41:40 PM 42.3306 -78.6256 289° West 441 507 38,000  Level Cleveland Center
Mon 01:42:42 PM 42.3686 -78.7825 288° West 441 507 38,000  Level Cleveland Center
Mon 01:43:44 PM 42.4078 -78.9414 289° West 441 507 38,000  Level Cleveland Center
Mon 01:44:46 PM 42.4525 -79.1286 288° West 442 509 38,000  Level Cleveland Center
Mon 01:45:47 PM 42.4914 -79.2847 289° West 439 505 38,000  Level Cleveland Center
Mon 01:46:49 PM 42.5297 -79.4417 288° West 439 505 38,000  Level Cleveland Center
Mon 01:47:51 PM 42.5669 -79.5997 288° West 441 507 38,000  Level Cleveland Center
Mon 01:48:52 PM 42.6053 -79.7592 288° West 443 510 38,000  Level Cleveland Center
Mon 01:49:54 PM 42.6167 -79.9244 275° West 443 510 38,000  Level Cleveland Center
Mon 01:50:56 PM 42.6242 -80.1058 273° West 443 510 38,000  Level Cleveland Center
Mon 01:51:57 PM 42.6317 -80.2739 274° West 443 510 38,000  Level Cleveland Center
Mon 01:52:59 PM 42.6397 -80.4431 274° West 444 511 38,000  Level Cleveland Center
Mon 01:54:01 PM 42.6461 -80.6108 273° West 444 511 38,000  Level Cleveland Center
Mon 01:55:02 PM 42.6522 -80.7806 273° West 445 512 38,000  Level Cleveland Center
Mon 01:56:04 PM 42.6581 -80.9469 273° West 442 509 38,000  Level Cleveland Center
Mon 01:57:06 PM 42.6636 -81.1403 272° West 439 505 38,000  Level Cleveland Center
Mon 01:58:07 PM 42.6711 -81.3067 274° West 439 505 38,000  Level Cleveland Center
Mon 01:59:09 PM 42.6908 -81.4706 279° West 438 504 38,000  Level Cleveland Center
Mon 02:00:11 PM 42.7094 -81.6347 279° West 438 504 38,000  Level Cleveland Center
Mon 02:01:13 PM 42.7286 -81.8078 279° West 437 503 38,000  Level Cleveland Center
Mon 02:02:14 PM 42.7478 -81.9769 279° West 436 502 38,000  Level Cleveland Center
Mon 02:03:16 PM 42.7656 -82.1386 279° West 436 502 38,000  Level Cleveland Center
Mon 02:04:18 PM 42.7831 -82.3000 278° West 434 499 38,000  Level Cleveland Center
Mon 02:05:20 PM 42.8006 -82.4606 279° West 434 499 38,000  Level Cleveland Center
Mon 02:06:22 PM 42.8189 -82.6231 279° West 434 499 38,000  Level Cleveland Center
Mon 02:07:23 PM 42.8414 -82.7822 281° West 431 496 38,000  Level Cleveland Center
Mon 02:08:25 PM 42.8675 -82.9750 281° West 433 498 38,000  Level Cleveland Center
Mon 02:09:27 PM 42.8886 -83.1358 280° West 433 498 38,000  Level Cleveland Center
Mon 02:10:29 PM 42.9100 -83.2956 280° West 433 498 38,000  Level Cleveland Center
Mon 02:11:31 PM 42.9311 -83.4561 280° West 433 498 38,000  Level Cleveland Center
Mon 02:12:33 PM 42.9506 -83.6167 279° West 433 498 38,000  Level Cleveland Center
Mon 02:13:35 PM 42.9753 -83.8083 280° West 431 496 38,000  Level Cleveland Center
Mon 02:14:36 PM 42.9894 -83.9686 277° West 430 495 38,000  Level Cleveland Center
Mon 02:15:38 PM 43.0053 -84.1294 278° West 430 495 38,000  Level Cleveland Center
Mon 02:16:40 PM 43.0200 -84.2906 277° West 430 495 38,000  Level Cleveland Center
Mon 02:17:42 PM 43.0358 -84.4667 277° West 430 495 38,000  Level Cleveland Center
Mon 02:18:44 PM 43.0508 -84.6272 277° West 429 494 38,000  Level Cleveland Center
Mon 02:19:46 PM 43.0650 -84.7889 277° West 429 494 38,000  Level Cleveland Center
Mon 02:20:48 PM 43.0794 -84.9497 277° West 429 494 38,000  Level Cleveland Center
Mon 02:21:50 PM 43.0933 -85.1083 277° West 425 489 38,000 -677 Level Cleveland Center
Mon 02:22:52 PM 43.1097 -85.3000 277° West 425 489 36,600 -1,645 Descending Cleveland Center
Mon 02:23:54 PM 43.1231 -85.4581 277° West 422 486 34,600 -1,742 Descending Cleveland Center
Mon 02:24:56 PM 43.1367 -85.6183 277° West 423 487 33,000 -774 Descending Cleveland Center
Mon 02:25:58 PM 43.1497 -85.7764 277° West 424 488 33,000  Level Cleveland Center
Mon 02:27:00 PM 43.1642 -85.9367 277° West 430 495 33,000 -532 Level Cleveland Center
Mon 02:28:02 PM 43.1697 -86.1306 272° West 436 502 31,900 -1,548 Descending Cleveland Center
Mon 02:29:04 PM 43.1664 -86.2886 268° West 427 491 29,800 -2,792 Descending Cleveland Center
Mon 02:30:26 PM 43.1636 -86.5014 269° West 405 466 25,200 -3,375 Descending Chicago Center
Mon 02:31:28 PM 43.1600 -86.6411 268° West 374 430 21,700 -3,220 Descending Chicago Center
Mon 02:32:29 PM 43.1572 -86.7775 268° West 364 419 18,600 -2,927 Descending Chicago Center
Mon 02:33:31 PM 43.1542 -86.9047 268° West 338 389 15,700 -2,323 Descending Chicago Center
Mon 02:34:33 PM 43.1508 -87.0208 268° West 311 358 13,800 -2,129 Descending Chicago Center
Mon 02:35:35 PM 43.1275 -87.1292 254° West 250 288 11,300 -2,323 Descending Chicago Center
Mon 02:36:37 PM 43.1056 -87.2200 252° West 252 290 9,000 -1,951 Descending Chicago Center
Mon 02:37:38 PM 43.0839 -87.3069 251° West 248 285 7,300 -1,707 Descending Chicago Center
Mon 02:38:40 PM 43.0617 -87.4036 253° West 240 276 5,500 -1,161 Descending Chicago Center
Mon 02:39:42 PM 43.0408 -87.4822 250° West 227 261 4,900 -1,016 Descending Chicago Center
Mon 02:40:44 PM 43.0278 -87.5472 255° West 189 217 3,400 -968 Descending Chicago Center
Mon 02:41:46 PM 43.0150 -87.6036 253° West 172 198 2,900 -439 Descending Chicago Center
Mon 02:42:47 PM 43.0031 -87.6542 252° West 155 178 2,500 -195 Descending Chicago Center
Mon 02:43:49 PM 42.9900 -87.7103 252° West 153 176 2,500  Level Chicago Center
Mon 02:44:51 PM 42.9761 -87.7656 251° West 153 176 2,500 -387 Level Chicago Center
Mon 02:45:53 PM 42.9625 -87.8206 251° West 143 165 1,700 -484 Descending Chicago Center
Mon 02:46:55 PM 42.9528 -87.8619 252° West 138 159 1,500 -194 Descending Chicago Center
Mon 02:48:00 PM 42.9333 -87.8833 236° Southwest  Level FlightAware Approximate
Mon 02:55:00 PM 42.9469 -87.8971 236° Southwest  Level Estimated

Login

Don't have an account? Register now (free) for customized features, flight alerts, and more!